createdAt,value
2018-09-11T00:02:20.375Z,8.03
2018-09-11T00:04:48.911Z,8.40
2018-09-11T00:07:17.408Z,7.60
2018-09-11T00:09:46.127Z,8.60
2018-09-11T00:12:14.623Z,8.53
2018-09-11T00:14:43.177Z,8.70
2018-09-11T00:17:11.834Z,7.90
2018-09-11T00:19:42.773Z,10.17
2018-09-11T00:22:11.278Z,8.70
2018-09-11T00:24:39.882Z,8.67
2018-09-11T00:27:08.392Z,8.30
2018-09-11T00:29:36.880Z,9.67
2018-09-11T00:32:05.384Z,8.73
2018-09-11T00:34:33.922Z,9.27
2018-09-11T00:37:02.416Z,8.90
2018-09-11T00:39:30.904Z,8.83
2018-09-11T00:41:59.376Z,8.73
2018-09-11T00:44:27.849Z,9.23
2018-09-11T00:46:56.335Z,9.63
2018-09-11T00:49:24.843Z,8.87
2018-09-11T00:51:54.722Z,9.57
2018-09-11T00:54:23.256Z,9.60
2018-09-11T00:56:51.771Z,9.60
2018-09-11T00:59:20.294Z,8.80
2018-09-11T01:01:48.765Z,8.90
2018-09-11T01:04:17.316Z,9.40
2018-09-11T01:06:45.789Z,10.10
2018-09-11T01:09:14.395Z,10.20
2018-09-11T01:11:52.364Z,9.80
2018-09-11T01:14:21.204Z,9.27
2018-09-11T01:16:50.018Z,9.60
2018-09-11T01:19:18.525Z,8.90
2018-09-11T01:21:47.102Z,9.40
2018-09-11T01:24:15.640Z,9.40
2018-09-11T01:26:44.164Z,9.50
2018-09-11T01:29:12.669Z,9.20
2018-09-11T01:31:41.146Z,8.63
2018-09-11T01:34:09.629Z,9.40
2018-09-11T01:36:38.437Z,9.37
2018-09-11T01:39:09.625Z,8.97
2018-09-11T01:41:38.205Z,10.10
2018-09-11T01:44:06.931Z,10.57
2018-09-11T01:46:35.474Z,10.87
2018-09-11T01:49:04.129Z,10.33
2018-09-11T01:51:32.863Z,10.00
2018-09-11T01:54:01.333Z,9.67
2018-09-11T01:56:30.150Z,9.20
2018-09-11T01:58:58.615Z,9.83
2018-09-11T02:01:27.130Z,9.00
2018-09-11T02:03:55.590Z,9.57
2018-09-11T02:06:24.096Z,10.10
2018-09-11T02:08:52.610Z,9.37
2018-09-11T02:11:21.182Z,10.20
2018-09-11T02:13:49.701Z,10.77
2018-09-11T02:16:18.232Z,10.47
2018-09-11T02:18:46.709Z,10.23
2018-09-11T02:21:15.196Z,9.60
2018-09-11T02:23:43.645Z,9.13
2018-09-11T02:26:12.140Z,9.23
2018-09-11T02:28:40.593Z,9.80
2018-09-11T02:31:12.923Z,9.80
2018-09-11T02:33:41.445Z,9.27
2018-09-11T02:36:09.926Z,9.70
2018-09-11T02:38:38.395Z,9.50
2018-09-11T02:41:07.025Z,9.33
2018-09-11T02:43:35.678Z,9.60
2018-09-11T02:46:04.183Z,9.27
2018-09-11T02:48:32.681Z,9.53
2018-09-11T02:51:01.168Z,9.03
2018-09-11T02:53:29.617Z,9.00
2018-09-11T02:55:59.654Z,9.37
2018-09-11T02:58:28.197Z,8.80
2018-09-11T03:00:56.750Z,9.10
2018-09-11T03:03:25.266Z,8.80
2018-09-11T03:05:53.799Z,9.10
2018-09-11T03:08:22.314Z,9.23
2018-09-11T03:10:50.794Z,9.83
2018-09-11T03:13:19.277Z,9.40
2018-09-11T03:15:49.168Z,9.73
2018-09-11T03:18:17.625Z,9.07
2018-09-11T03:20:46.132Z,10.10
2018-09-11T03:23:14.626Z,10.23
2018-09-11T03:25:43.125Z,9.50
2018-09-11T03:28:11.587Z,10.20
2018-09-11T03:30:40.078Z,9.63
2018-09-11T03:33:08.552Z,9.77
2018-09-11T03:35:37.061Z,10.80
2018-09-11T03:38:05.808Z,10.00
2018-09-11T03:40:34.334Z,10.83
2018-09-11T03:43:02.850Z,10.67
2018-09-11T03:45:31.405Z,11.43
2018-09-11T03:47:59.869Z,8.87
2018-09-11T03:50:28.418Z,9.90
2018-09-11T03:52:56.870Z,10.50
2018-09-11T03:55:25.330Z,9.13
2018-09-11T03:57:53.835Z,9.07
2018-09-11T04:00:22.301Z,9.83
2018-09-11T04:02:50.809Z,9.37
2018-09-11T04:05:19.340Z,9.40
2018-09-11T04:07:47.866Z,10.00
2018-09-11T04:10:16.325Z,10.80
2018-09-11T04:12:44.813Z,9.80
2018-09-11T04:15:13.296Z,10.40
2018-09-11T04:17:42.485Z,11.20
2018-09-11T04:20:10.979Z,9.53
2018-09-11T04:22:40.107Z,10.77
2018-09-11T04:25:08.858Z,11.20
2018-09-11T04:27:37.373Z,10.07
2018-09-11T04:30:05.901Z,9.80
2018-09-11T04:32:34.415Z,9.90
2018-09-11T04:35:02.869Z,9.33
2018-09-11T04:37:31.368Z,9.43
2018-09-11T04:39:59.801Z,9.47
2018-09-11T04:42:28.293Z,9.93
2018-09-11T04:44:56.779Z,10.27
2018-09-11T04:47:25.289Z,10.43
2018-09-11T04:49:53.769Z,11.27
2018-09-11T04:52:22.456Z,10.40
2018-09-11T04:54:50.980Z,10.27
2018-09-11T04:57:19.466Z,9.90
2018-09-11T04:59:47.912Z,10.73
2018-09-11T05:02:16.475Z,11.53
2018-09-11T05:04:44.961Z,11.83
2018-09-11T05:07:13.495Z,10.60
2018-09-11T05:10:48.572Z,10.20
2018-09-11T05:13:17.153Z,10.90
2018-09-11T05:15:45.658Z,10.83
2018-09-11T05:18:14.193Z,10.30
2018-09-11T05:20:43.461Z,10.23
2018-09-11T05:24:36.329Z,10.30
2018-09-11T05:27:04.823Z,10.50
2018-09-11T05:29:33.250Z,9.50
2018-09-11T05:32:01.741Z,9.40
2018-09-11T05:34:30.785Z,9.27
2018-09-11T05:36:59.312Z,9.83
2018-09-11T05:39:27.801Z,9.63
2018-09-11T05:41:56.285Z,9.93
2018-09-11T05:44:24.736Z,8.67
2018-09-11T05:46:53.277Z,9.90
2018-09-11T05:49:21.751Z,10.10
2018-09-11T05:51:50.371Z,10.33
2018-09-11T05:54:18.858Z,9.90
2018-09-11T05:56:50.068Z,9.87
2018-09-11T05:59:18.631Z,9.20
2018-09-11T06:01:47.207Z,8.87
2018-09-11T06:04:15.720Z,10.43
2018-09-11T06:06:45.078Z,10.97
2018-09-11T06:09:14.327Z,11.53
2018-09-11T06:11:43.192Z,12.33
2018-09-11T06:14:14.459Z,11.13
2018-09-11T06:16:44.157Z,11.93
2018-09-11T06:19:12.638Z,12.50
2018-09-11T06:21:41.084Z,12.17
2018-09-11T06:24:10.237Z,11.53
2018-09-11T06:26:38.693Z,12.33
2018-09-11T06:29:14.419Z,13.43
2018-09-11T06:31:51.383Z,13.67
2018-09-11T06:34:19.864Z,12.63
2018-09-11T06:36:48.304Z,13.73
2018-09-11T06:39:16.831Z,13.87
2018-09-11T06:41:45.300Z,12.60
2018-09-11T06:44:14.058Z,13.03
2018-09-11T06:46:42.474Z,11.50
2018-09-11T06:49:10.957Z,11.63
2018-09-11T06:51:39.421Z,10.27
2018-09-11T06:54:07.942Z,9.40
2018-09-11T06:56:41.406Z,9.50
2018-09-11T06:59:10.151Z,9.70
2018-09-11T07:01:59.502Z,10.32
2018-09-11T07:04:29.779Z,8.35
2018-09-11T07:06:58.354Z,8.60
2018-09-11T07:09:26.875Z,8.78
2018-09-11T07:11:55.333Z,8.60
2018-09-11T07:14:23.821Z,8.93
2018-09-11T07:16:52.307Z,8.03
2018-09-11T07:19:20.786Z,7.53
2018-09-11T07:21:49.272Z,7.55
2018-09-11T07:24:17.762Z,7.75
2018-09-11T07:26:46.283Z,7.12
2018-09-11T07:29:14.839Z,7.25
2018-09-11T07:31:43.386Z,7.25
2018-09-11T07:34:11.893Z,7.37
2018-09-11T07:36:40.389Z,7.03
2018-09-11T07:39:09.457Z,7.30
2018-09-11T07:41:37.920Z,7.25
2018-09-11T07:44:06.414Z,8.05
2018-09-11T07:46:34.894Z,7.65
2018-09-11T07:49:03.418Z,7.08
2018-09-11T07:51:31.873Z,7.67
2018-09-11T07:54:00.384Z,9.33
2018-09-11T07:56:28.842Z,7.03
2018-09-11T07:58:57.330Z,8.00
2018-09-11T08:01:25.808Z,7.10
2018-09-11T08:03:54.338Z,7.65
2018-09-11T08:06:22.795Z,6.30
2018-09-11T08:08:51.377Z,7.80
2018-09-11T08:11:19.893Z,7.62
2018-09-11T08:13:48.372Z,7.90
2018-09-11T08:16:16.890Z,7.20
2018-09-11T08:18:45.365Z,8.08
2018-09-11T08:21:13.812Z,7.05
2018-09-11T08:23:42.327Z,7.15
2018-09-11T08:26:10.896Z,6.35
2018-09-11T08:28:39.418Z,6.20
2018-09-11T08:31:07.918Z,6.47
2018-09-11T08:33:36.489Z,6.58
2018-09-11T08:36:04.977Z,6.35
2018-09-11T08:38:34.276Z,6.42
2018-09-11T08:41:02.818Z,6.85
2018-09-11T08:43:31.351Z,6.08
2018-09-11T08:45:59.837Z,6.10
2018-09-11T08:48:28.340Z,6.40
2018-09-11T08:50:56.857Z,6.25
2018-09-11T08:53:25.390Z,6.20
2018-09-11T08:55:53.946Z,5.50
2018-09-11T08:58:22.456Z,6.17
2018-09-11T09:00:51.006Z,6.45
2018-09-11T09:03:19.497Z,6.65
2018-09-11T09:05:48.011Z,5.85
2018-09-11T09:08:16.990Z,6.03
2018-09-11T09:10:45.505Z,5.22
2018-09-11T09:13:13.956Z,6.15
2018-09-11T09:15:42.644Z,5.60
2018-09-11T09:18:11.108Z,5.25
2018-09-11T09:20:39.641Z,5.28
2018-09-11T09:23:08.125Z,5.37
2018-09-11T09:25:36.664Z,5.20
2018-09-11T09:28:05.153Z,5.35
2018-09-11T09:30:33.690Z,5.25
2018-09-11T09:33:02.169Z,5.58
2018-09-11T09:35:32.182Z,4.80
2018-09-11T09:38:00.746Z,4.55
2018-09-11T09:40:29.236Z,5.35
2018-09-11T09:42:57.745Z,5.58
2018-09-11T09:45:26.494Z,4.37
2018-09-11T09:47:54.985Z,6.00
2018-09-11T09:50:23.611Z,4.45
2018-09-11T09:52:52.115Z,4.58
2018-09-11T09:55:20.658Z,4.70
2018-09-11T09:57:49.165Z,4.75
2018-09-11T10:01:20.745Z,5.67
2018-09-11T10:03:49.252Z,4.10
2018-09-11T10:06:17.901Z,3.87
2018-09-11T10:08:46.384Z,3.42
2018-09-11T10:11:14.890Z,3.92
2018-09-11T10:13:43.373Z,3.45
2018-09-11T10:16:11.901Z,3.00
2018-09-11T10:18:40.345Z,4.95
2018-09-11T10:21:08.852Z,3.62
2018-09-11T10:23:37.345Z,3.98
2018-09-11T10:26:05.908Z,3.67
2018-09-11T10:28:34.459Z,3.30
2018-09-11T10:31:02.969Z,3.40
2018-09-11T10:33:31.477Z,4.75
2018-09-11T10:36:00.005Z,5.60
2018-09-11T10:38:28.487Z,4.80
2018-09-11T10:42:26.131Z,2.95
2018-09-11T10:44:54.646Z,3.55
2018-09-11T10:47:23.116Z,4.40
2018-09-11T10:49:51.591Z,3.60
2018-09-11T10:52:20.107Z,3.27
2018-09-11T10:54:48.565Z,4.28
2018-09-11T10:57:17.065Z,2.58
2018-09-11T10:59:45.558Z,2.70
2018-09-11T11:02:14.045Z,2.87
2018-09-11T11:04:42.601Z,2.50
2018-09-11T11:07:11.187Z,3.10
2018-09-11T11:09:39.660Z,2.90
2018-09-11T11:12:08.203Z,2.98
2018-09-11T11:14:36.710Z,3.50
2018-09-11T11:17:05.590Z,2.85
2018-09-11T11:19:37.261Z,3.27
2018-09-11T11:22:05.827Z,3.15
2018-09-11T11:24:34.289Z,3.58
2018-09-11T11:27:02.799Z,3.62
2018-09-11T11:29:31.259Z,3.25
2018-09-11T11:32:00.401Z,2.87
2018-09-11T11:34:28.898Z,3.98
2018-09-11T11:36:57.542Z,3.00
2018-09-11T11:39:25.853Z,3.75
2018-09-11T11:41:54.517Z,3.15
2018-09-11T11:44:22.950Z,4.83
2018-09-11T11:46:51.449Z,3.17
2018-09-11T11:49:19.937Z,3.50
2018-09-11T11:51:48.400Z,2.92
2018-09-11T11:54:16.853Z,3.50
2018-09-11T11:56:45.334Z,3.27
2018-09-11T11:59:13.830Z,3.50
2018-09-11T12:01:42.470Z,3.52
2018-09-11T12:04:10.920Z,3.50
2018-09-11T12:06:39.400Z,3.72
2018-09-11T12:09:09.706Z,3.33
2018-09-11T12:11:38.206Z,4.33
2018-09-11T12:14:06.709Z,4.65
2018-09-11T12:16:35.225Z,3.50
2018-09-11T12:19:03.689Z,4.72
2018-09-11T12:21:32.185Z,4.22
2018-09-11T12:24:00.632Z,3.45
2018-09-11T12:26:29.151Z,3.83
2018-09-11T12:28:57.646Z,5.03
2018-09-11T12:31:26.144Z,4.05
2018-09-11T12:33:54.585Z,5.42
2018-09-11T12:36:23.085Z,4.22
2018-09-11T12:38:51.581Z,3.85
2018-09-11T12:41:20.016Z,3.85
2018-09-11T12:43:48.513Z,3.80
2018-09-11T12:46:19.478Z,5.33
2018-09-11T12:48:47.739Z,3.72
2018-09-11T12:51:16.283Z,3.55
2018-09-11T12:53:44.813Z,4.10
2018-09-11T12:56:14.537Z,3.30
2018-09-11T12:58:44.097Z,5.50
2018-09-11T13:01:12.611Z,3.65
2018-09-11T13:03:41.104Z,3.45
2018-09-11T13:06:09.683Z,6.65
2018-09-11T13:08:38.131Z,5.45
2018-09-11T13:11:07.643Z,4.17
2018-09-11T13:13:36.101Z,4.47
2018-09-11T13:16:04.597Z,2.92
2018-09-11T13:18:33.108Z,5.00
2018-09-11T13:21:01.565Z,3.58
2018-09-11T13:23:30.026Z,4.20
2018-09-11T13:25:58.780Z,3.87
2018-09-11T13:28:27.258Z,4.33
2018-09-11T13:30:55.708Z,3.35
2018-09-11T13:33:24.254Z,5.42
2018-09-11T13:35:52.719Z,4.87
2018-09-11T13:38:21.196Z,3.40
2018-09-11T13:40:49.656Z,4.55
2018-09-11T13:43:18.154Z,4.72
2018-09-11T13:45:46.619Z,3.58
2018-09-11T13:48:15.395Z,3.12
2018-09-11T13:50:43.878Z,3.50
2018-09-11T13:53:12.373Z,3.47
2018-09-11T13:55:40.839Z,2.95
2018-09-11T13:58:09.367Z,5.60
2018-09-11T14:00:37.867Z,3.08
2018-09-11T14:03:06.644Z,3.30
2018-09-11T14:05:35.113Z,3.45
2018-09-11T14:08:03.655Z,3.45
2018-09-11T14:10:32.133Z,3.10
2018-09-11T14:13:00.633Z,4.35
2018-09-11T14:15:29.101Z,6.05
2018-09-11T14:17:57.655Z,3.00
2018-09-11T14:20:26.118Z,4.87
2018-09-11T14:22:54.616Z,3.17
2018-09-11T14:25:23.071Z,4.53
2018-09-11T14:27:51.573Z,3.40
2018-09-11T14:30:20.038Z,3.60
2018-09-11T14:32:48.569Z,3.42
2018-09-11T14:35:17.041Z,3.10
2018-09-11T14:37:45.509Z,3.72
2018-09-11T14:40:14.085Z,3.60
2018-09-11T14:42:42.623Z,3.20
2018-09-11T14:45:11.118Z,5.12
2018-09-11T14:47:43.245Z,3.58
2018-09-11T14:50:13.345Z,3.25
2018-09-11T14:52:41.943Z,3.35
2018-09-11T14:55:10.913Z,3.15
2018-09-11T14:57:39.425Z,3.30
2018-09-11T15:00:08.214Z,3.05
2018-09-11T15:02:36.774Z,4.20
2018-09-11T15:05:05.344Z,4.10
2018-09-11T15:07:33.801Z,4.22
2018-09-11T15:10:02.316Z,3.45
2018-09-11T15:12:30.796Z,3.95
2018-09-11T15:14:59.396Z,3.15
2018-09-11T15:17:27.835Z,3.55
2018-09-11T15:19:56.371Z,3.25
2018-09-11T15:22:24.879Z,3.65
2018-09-11T15:24:53.373Z,7.85
2018-09-11T15:27:21.854Z,5.00
2018-09-11T15:29:50.390Z,5.12
2018-09-11T15:32:18.892Z,3.27
2018-09-11T15:34:47.402Z,3.40
2018-09-11T15:37:15.886Z,3.27
2018-09-11T15:39:44.401Z,4.75
2018-09-11T15:42:12.873Z,3.77
2018-09-11T15:44:41.417Z,5.42
2018-09-11T15:47:10.208Z,3.70
2018-09-11T15:49:38.673Z,3.30
2018-09-11T15:52:07.256Z,4.28
2018-09-11T15:54:35.767Z,3.37
2018-09-11T15:57:04.271Z,4.05
2018-09-11T15:59:32.795Z,4.92
2018-09-11T16:02:01.306Z,3.37
2018-09-11T16:04:29.781Z,3.75
2018-09-11T16:06:58.297Z,3.92
2018-09-11T16:09:26.911Z,5.03
2018-09-11T16:11:55.398Z,3.10
2018-09-11T16:14:23.933Z,3.95
2018-09-11T16:16:52.421Z,3.77
2018-09-11T16:19:20.901Z,3.55
2018-09-11T16:21:49.387Z,3.15
2018-09-11T16:24:17.880Z,3.83
2018-09-11T16:26:46.380Z,3.08
2018-09-11T16:29:14.862Z,3.95
2018-09-11T16:31:43.366Z,3.35
2018-09-11T16:37:04.450Z,3.45
2018-09-11T16:39:32.918Z,3.20
2018-09-11T16:42:01.388Z,3.20
2018-09-11T16:44:29.898Z,3.50
2018-09-11T16:46:58.407Z,3.67
2018-09-11T16:49:26.997Z,3.22
2018-09-11T16:51:55.461Z,3.37
2018-09-11T16:54:23.979Z,3.22
2018-09-11T16:56:52.502Z,3.35
2018-09-11T16:59:22.336Z,3.40
2018-09-11T17:01:50.965Z,3.17
2018-09-11T17:04:19.397Z,3.17
2018-09-11T17:06:47.896Z,3.33
2018-09-11T17:09:16.407Z,3.80
2018-09-11T17:11:44.921Z,4.80
2018-09-11T17:14:13.365Z,4.25
2018-09-11T17:16:42.049Z,4.45
2018-09-11T17:19:10.515Z,3.30
2018-09-11T17:21:38.989Z,3.75
2018-09-11T17:24:07.449Z,3.85
2018-09-11T17:26:35.958Z,4.70
2018-09-11T17:29:06.235Z,3.10
2018-09-11T17:31:34.749Z,4.67
2018-09-11T17:34:03.209Z,3.83
2018-09-11T17:36:31.725Z,3.80
2018-09-11T17:39:00.215Z,3.52
2018-09-11T17:41:28.817Z,4.53
2018-09-11T17:43:57.270Z,3.85
2018-09-11T17:46:25.754Z,4.43
2018-09-11T17:57:32.017Z,3.33
2018-09-11T18:00:00.529Z,4.07
2018-09-11T18:02:29.083Z,4.70
2018-09-11T18:04:57.607Z,7.73
2018-09-11T18:07:26.167Z,3.63
2018-09-11T18:09:54.688Z,4.50
2018-09-11T18:12:23.272Z,4.83
2018-09-11T18:14:51.791Z,4.50
2018-09-11T18:17:20.318Z,7.43
2018-09-11T18:19:48.821Z,3.83
2018-09-11T18:22:17.367Z,6.57
2018-09-11T18:26:15.069Z,9.07
2018-09-11T18:28:43.602Z,5.27
2018-09-11T18:31:12.143Z,6.10
2018-09-11T18:33:40.664Z,6.97
2018-09-11T18:36:10.146Z,7.67
2018-09-11T18:38:38.682Z,4.97
2018-09-11T18:41:07.242Z,9.53
2018-09-11T18:43:35.778Z,5.30
2018-09-11T18:46:04.332Z,5.23
2018-09-11T18:48:32.846Z,6.60
2018-09-11T18:51:32.404Z,8.43
2018-09-11T18:54:00.903Z,5.47
2018-09-11T18:56:29.442Z,5.50
2018-09-11T18:58:57.969Z,6.10
2018-09-11T19:01:26.569Z,5.23
2018-09-11T19:03:55.087Z,7.20
2018-09-11T19:06:23.643Z,6.43
2018-09-11T19:08:52.169Z,5.00
2018-09-11T19:11:20.732Z,6.17
2018-09-11T19:13:49.270Z,6.40
2018-09-11T19:16:18.409Z,7.23
2018-09-11T19:18:47.411Z,4.97
2018-09-11T19:21:15.967Z,5.00
2018-09-11T19:23:44.484Z,8.07
2018-09-11T19:26:13.117Z,5.17
2018-09-11T19:28:41.724Z,6.50
2018-09-11T19:31:11.088Z,6.93
2018-09-11T19:33:39.656Z,6.03
2018-09-11T19:36:08.176Z,5.93
2018-09-11T19:38:37.899Z,6.10
2018-09-11T19:41:06.540Z,6.17
2018-09-11T19:43:35.081Z,6.20
2018-09-11T19:46:03.623Z,5.83
2018-09-11T19:48:34.984Z,6.40
2018-09-11T19:51:03.496Z,7.73
2018-09-11T19:53:32.050Z,5.43
2018-09-11T19:56:00.562Z,6.07
2018-09-11T19:58:29.150Z,6.27
2018-09-11T20:00:57.664Z,6.40
2018-09-11T20:03:26.202Z,6.77
2018-09-11T20:05:54.736Z,8.67
2018-09-11T20:08:23.275Z,5.97
2018-09-11T20:10:51.780Z,7.00
2018-09-11T20:13:20.332Z,9.03
2018-09-11T20:15:48.852Z,11.20
2018-09-11T20:18:17.431Z,7.17
2018-09-11T20:20:45.943Z,7.43
2018-09-11T20:23:14.504Z,7.23
2018-09-11T20:25:43.018Z,8.03
2018-09-11T20:28:11.568Z,6.40
2018-09-11T20:30:40.077Z,7.73
2018-09-11T20:33:08.623Z,6.80
2018-09-11T20:35:37.136Z,6.80
2018-09-11T20:38:05.757Z,7.43
2018-09-11T20:40:34.269Z,8.27
2018-09-11T20:43:02.826Z,6.57
2018-09-11T20:45:31.347Z,7.10
2018-09-11T20:47:59.907Z,7.83
2018-09-11T20:50:28.424Z,6.93
2018-09-11T20:52:56.958Z,6.97
2018-09-11T20:55:25.507Z,7.07
2018-09-11T20:57:54.025Z,6.80
2018-09-11T21:00:22.534Z,7.20
2018-09-11T21:02:51.275Z,7.43
2018-09-11T21:05:19.803Z,7.43
2018-09-11T21:07:48.343Z,7.33
2018-09-11T21:10:16.955Z,7.17
2018-09-11T21:12:45.503Z,8.53
2018-09-11T21:15:13.995Z,7.37
2018-09-11T21:17:42.546Z,7.43
2018-09-11T21:20:11.077Z,10.47
2018-09-11T21:22:39.610Z,9.33
2018-09-11T21:25:08.124Z,7.30
2018-09-11T21:27:36.681Z,6.87
2018-09-11T21:30:05.669Z,6.97
2018-09-11T21:32:34.189Z,7.33
2018-09-11T21:35:02.736Z,8.20
2018-09-11T21:37:31.259Z,7.30
2018-09-11T21:39:59.807Z,8.57
2018-09-11T21:42:28.324Z,7.93
2018-09-11T21:44:56.856Z,6.80
2018-09-11T21:47:25.408Z,7.33
2018-09-11T21:49:53.944Z,7.00
2018-09-11T21:52:22.440Z,7.47
2018-09-11T21:54:50.986Z,7.77
2018-09-11T21:57:19.503Z,7.03
2018-09-11T21:59:48.036Z,7.53
2018-09-11T22:02:16.544Z,7.17
2018-09-11T22:04:45.066Z,8.80
2018-09-11T22:07:13.591Z,6.57
2018-09-11T22:09:42.111Z,7.33
2018-09-11T22:12:10.628Z,7.37
2018-09-11T22:14:39.160Z,6.93
2018-09-11T22:17:07.687Z,7.33
2018-09-11T22:19:36.227Z,6.97
2018-09-11T22:22:04.767Z,7.57
2018-09-11T22:24:33.304Z,7.60
2018-09-11T22:27:01.804Z,9.83
2018-09-11T22:29:30.343Z,7.17
2018-09-11T22:31:58.842Z,8.30
2018-09-11T22:34:28.243Z,8.73
2018-09-11T22:36:56.761Z,7.53
2018-09-11T22:39:25.368Z,7.33
2018-09-11T22:41:53.861Z,7.27
2018-09-11T22:44:22.414Z,8.33
2018-09-11T22:46:50.981Z,7.77
2018-09-11T22:49:19.535Z,7.80
2018-09-11T22:51:48.039Z,7.30
2018-09-11T22:54:16.573Z,7.50
2018-09-11T22:56:45.055Z,7.43
2018-09-11T22:59:13.592Z,7.90
2018-09-11T23:01:42.104Z,7.60
2018-09-11T23:04:10.625Z,7.90
2018-09-11T23:06:39.144Z,8.70
2018-09-11T23:09:09.067Z,10.47
2018-09-11T23:11:37.559Z,7.93
2018-09-11T23:14:06.204Z,9.27
2018-09-11T23:16:34.731Z,8.57
2018-09-11T23:19:03.615Z,9.63
2018-09-11T23:21:32.368Z,8.30
2018-09-11T23:24:00.927Z,7.97
2018-09-11T23:26:29.419Z,7.97
2018-09-11T23:28:57.911Z,7.60
2018-09-11T23:31:26.515Z,7.80
2018-09-11T23:33:55.027Z,8.60
2018-09-11T23:36:23.564Z,8.13
2018-09-11T23:38:52.079Z,7.63
2018-09-11T23:41:20.709Z,8.07
2018-09-11T23:43:49.327Z,7.70
2018-09-11T23:46:17.854Z,7.77
2018-09-11T23:48:46.424Z,7.43
2018-09-11T23:51:14.935Z,8.60
2018-09-11T23:53:43.424Z,8.90
2018-09-11T23:56:11.968Z,7.80
2018-09-11T23:58:40.464Z,8.63
